Redstone Arsenal, Alabama
Current Conditions -  °F | °C
As of 5:53 PM on Friday 24 Oct 2014 (Local Time) from KHSV Reporting Station
Scattered Clouds Scattered Clouds  
Wind Chill: 68°   Ceiling: Unl
Heat Index: 68°   Visibility: 10mi
Dew Point: 38°   Wind: 3mph
Humidity: 33%   Direction: 350°N
Pressure: 30.05"   Gusts: NA
Location:  34.6546°N, 86.6455°W
Report Text: KHSV 242253Z 35003KT 10SM SCT250 20/03 A3005 RMK AO2 SLP173 T02000033
Loading
Personal Weather Stations






























Interactive Weather Map
Tropical Storm Tracking
New forecast layout! Learn more

10-Day Weather Forecast

Advertisements
Track Severe Weather on mobile